createdAt,value
2022-08-07T00:00:25.405Z,18.17
2022-08-07T00:02:53.697Z,18.14
2022-08-07T00:05:20.768Z,18.13
2022-08-07T00:07:59.730Z,18.11
2022-08-07T00:10:31.083Z,18.10
2022-08-07T00:13:23.562Z,18.06
2022-08-07T00:15:51.844Z,18.05
2022-08-07T00:18:24.351Z,18.03
2022-08-07T00:20:54.682Z,18.01
2022-08-07T00:23:21.660Z,17.98
2022-08-07T00:25:58.922Z,17.93
2022-08-07T00:28:33.673Z,17.91
2022-08-07T00:31:12.438Z,17.86
2022-08-07T00:33:40.345Z,17.85
2022-08-07T00:36:08.472Z,17.81
2022-08-07T00:38:36.744Z,17.77
2022-08-07T00:41:09.910Z,17.75
2022-08-07T00:44:01.181Z,17.73
2022-08-07T00:46:30.005Z,17.72
2022-08-07T00:49:02.178Z,17.69
2022-08-07T00:51:57.403Z,17.69
2022-08-07T00:54:16.731Z,17.68
2022-08-07T00:56:49.555Z,17.66
2022-08-07T00:59:17.334Z,17.65
2022-08-07T01:01:48.399Z,17.64
2022-08-07T01:04:21.682Z,17.62
2022-08-07T01:06:51.464Z,17.63
2022-08-07T01:10:03.860Z,17.61
2022-08-07T01:12:29.057Z,17.60
2022-08-07T01:14:57.130Z,17.58
2022-08-07T01:17:30.164Z,17.55
2022-08-07T01:20:08.181Z,17.51
2022-08-07T01:22:37.855Z,17.51
2022-08-07T01:25:53.997Z,17.47
2022-08-07T01:28:03.621Z,17.45
2022-08-07T01:30:32.290Z,17.42
2022-08-07T01:32:59.319Z,17.39
2022-08-07T01:35:36.871Z,17.38
2022-08-07T01:38:24.846Z,17.37
2022-08-07T01:41:02.598Z,17.33
2022-08-07T01:43:38.048Z,17.31
2022-08-07T01:46:08.386Z,17.30
2022-08-07T01:48:46.577Z,17.27
2022-08-07T01:52:02.706Z,17.25
2022-08-07T01:54:19.267Z,17.23
2022-08-07T01:57:08.279Z,17.20
2022-08-07T01:59:43.762Z,17.17
2022-08-07T02:03:12.355Z,17.13
2022-08-07T02:05:43.394Z,17.13
2022-08-07T02:08:20.587Z,17.10
2022-08-07T02:10:55.275Z,17.09
2022-08-07T02:13:57.218Z,17.05
2022-08-07T02:16:19.911Z,17.02
2022-08-07T02:18:55.964Z,17.01
2022-08-07T02:21:24.930Z,16.96
2022-08-07T02:23:53.257Z,16.94
2022-08-07T02:26:33.885Z,16.91
2022-08-07T02:29:07.529Z,16.91
2022-08-07T02:31:41.926Z,16.88
2022-08-07T02:34:11.181Z,16.86
2022-08-07T02:36:49.488Z,16.86
2022-08-07T02:39:42.431Z,16.84
2022-08-07T02:42:10.334Z,16.85
2022-08-07T02:44:48.130Z,16.84
2022-08-07T02:47:19.747Z,16.81
2022-08-07T02:49:58.701Z,16.78
2022-08-07T02:52:34.361Z,16.75
2022-08-07T02:55:41.855Z,16.73
2022-08-07T02:58:10.398Z,16.74
2022-08-07T03:00:41.631Z,16.71
2022-08-07T03:03:21.159Z,16.70
2022-08-07T03:05:53.836Z,16.69
2022-08-07T03:08:26.820Z,16.67
2022-08-07T03:10:58.152Z,16.65
2022-08-07T03:13:38.746Z,16.62
2022-08-07T03:16:16.779Z,16.57
2022-08-07T03:18:50.178Z,16.54
2022-08-07T03:21:19.078Z,16.54
2022-08-07T03:24:18.452Z,16.51
2022-08-07T03:26:36.007Z,16.52
2022-08-07T03:29:15.184Z,16.53
2022-08-07T03:31:49.839Z,16.51
2022-08-07T03:34:22.134Z,16.51
2022-08-07T03:36:53.638Z,16.52
2022-08-07T03:39:59.005Z,16.52
2022-08-07T03:42:11.825Z,16.51
2022-08-07T03:44:39.960Z,16.50
2022-08-07T03:47:13.044Z,16.49
2022-08-07T03:49:40.558Z,16.50
2022-08-07T03:52:22.373Z,16.49
2022-08-07T03:54:55.275Z,16.50
2022-08-07T03:58:33.677Z,16.48
2022-08-07T04:00:14.810Z,16.49
2022-08-07T04:02:49.366Z,16.47
2022-08-07T04:05:39.709Z,16.47
2022-08-07T04:08:15.989Z,16.46
2022-08-07T04:10:54.260Z,16.45
2022-08-07T04:14:10.970Z,16.44
2022-08-07T04:16:31.472Z,16.42
2022-08-07T04:19:04.307Z,16.42
2022-08-07T04:21:39.652Z,16.40
2022-08-07T04:24:34.308Z,16.40
2022-08-07T04:27:25.442Z,16.39
2022-08-07T04:30:02.261Z,16.38
2022-08-07T04:32:44.942Z,16.38
2022-08-07T04:35:16.346Z,16.39
2022-08-07T04:38:04.655Z,16.40
2022-08-07T04:40:32.705Z,16.43
2022-08-07T04:43:01.964Z,16.43
2022-08-07T04:46:00.931Z,16.43
2022-08-07T04:48:59.326Z,16.44
2022-08-07T04:51:32.629Z,16.46
2022-08-07T04:54:22.656Z,16.44
2022-08-07T04:58:10.520Z,16.46
2022-08-07T05:00:11.430Z,16.51
2022-08-07T05:03:31.163Z,16.51
2022-08-07T05:06:19.619Z,16.57
2022-08-07T05:09:02.183Z,16.55
2022-08-07T05:11:57.578Z,16.58
2022-08-07T05:14:54.958Z,16.61
2022-08-07T05:17:52.577Z,16.64
2022-08-07T05:20:24.948Z,16.69
2022-08-07T05:22:57.975Z,16.74
2022-08-07T05:25:54.477Z,16.78
2022-08-07T05:28:22.656Z,16.85
2022-08-07T05:30:56.788Z,16.91
2022-08-07T05:33:28.313Z,16.95
2022-08-07T05:35:56.171Z,16.99
2022-08-07T05:39:00.263Z,17.04
2022-08-07T05:41:15.871Z,17.11
2022-08-07T05:44:08.173Z,17.17
2022-08-07T05:46:38.107Z,17.25
2022-08-07T05:49:11.790Z,17.29
2022-08-07T05:51:43.499Z,17.27
2022-08-07T05:54:31.355Z,17.28
2022-08-07T05:57:04.453Z,17.32
2022-08-07T05:59:46.614Z,17.34
2022-08-07T06:02:29.085Z,17.41
2022-08-07T06:05:03.470Z,17.43
2022-08-07T06:08:13.569Z,17.46
2022-08-07T06:10:18.926Z,17.53
2022-08-07T06:12:48.540Z,17.57
2022-08-07T06:15:19.993Z,17.65
2022-08-07T06:17:53.480Z,17.71
2022-08-07T06:20:50.057Z,17.67
2022-08-07T06:23:46.019Z,17.75
2022-08-07T06:25:59.807Z,17.81
2022-08-07T06:28:27.198Z,17.87
2022-08-07T06:30:56.544Z,17.87
2022-08-07T06:33:26.605Z,17.89
2022-08-07T06:36:11.821Z,17.92
2022-08-07T06:38:51.388Z,17.95
2022-08-07T06:42:02.477Z,18.00
2022-08-07T06:44:46.006Z,18.05
2022-08-07T06:47:18.819Z,18.06
2022-08-07T06:49:52.172Z,18.03
2022-08-07T06:52:35.590Z,18.04
2022-08-07T06:55:31.489Z,18.14
2022-08-07T06:58:04.252Z,18.21
2022-08-07T07:00:38.141Z,18.27
2022-08-07T07:03:08.732Z,18.35
2022-08-07T07:06:02.385Z,18.42
2022-08-07T07:08:27.283Z,18.51
2022-08-07T07:10:56.889Z,18.52
2022-08-07T07:13:56.721Z,18.47
2022-08-07T07:16:33.829Z,18.55
2022-08-07T07:19:54.463Z,18.61
2022-08-07T07:22:05.071Z,18.69
2022-08-07T07:24:43.127Z,18.74
2022-08-07T07:27:35.592Z,18.84
2022-08-07T07:30:20.800Z,18.93
2022-08-07T07:33:01.404Z,18.99
2022-08-07T07:35:33.494Z,19.04
2022-08-07T07:38:04.862Z,19.07
2022-08-07T07:40:34.421Z,19.11
2022-08-07T07:43:15.476Z,19.15
2022-08-07T07:46:38.264Z,19.26
2022-08-07T07:48:36.506Z,19.33
2022-08-07T07:51:08.116Z,19.36
2022-08-07T07:53:50.404Z,19.39
2022-08-07T07:56:30.435Z,19.47
2022-08-07T07:59:00.460Z,19.49
2022-08-07T08:02:03.732Z,19.54
2022-08-07T08:04:18.380Z,19.56
2022-08-07T08:06:52.273Z,19.61
2022-08-07T08:09:23.486Z,19.70
2022-08-07T08:12:02.886Z,19.73
2022-08-07T08:14:36.379Z,19.75
2022-08-07T08:17:41.194Z,19.85
2022-08-07T08:20:17.643Z,19.93
2022-08-07T08:23:08.181Z,20.01
2022-08-07T08:25:56.569Z,20.06
2022-08-07T08:28:37.901Z,20.07
2022-08-07T08:31:15.626Z,20.12
2022-08-07T08:33:49.750Z,20.16
2022-08-07T08:36:29.641Z,20.18
2022-08-07T08:38:59.860Z,20.26
2022-08-07T08:41:57.919Z,20.36
2022-08-07T08:44:44.262Z,20.40
2022-08-07T08:47:34.389Z,20.38
2022-08-07T08:50:35.285Z,20.48
2022-08-07T08:53:19.693Z,20.55
2022-08-07T08:56:01.295Z,20.65
2022-08-07T08:58:59.754Z,20.81
2022-08-07T09:01:58.457Z,20.96
2022-08-07T09:04:44.523Z,21.11
2022-08-07T09:07:23.224Z,21.21
2022-08-07T09:10:14.461Z,21.22
2022-08-07T09:12:53.354Z,21.25
2022-08-07T09:16:25.229Z,21.22
2022-08-07T09:19:03.462Z,21.26
2022-08-07T09:22:10.294Z,21.34
2022-08-07T09:24:59.417Z,21.38
2022-08-07T09:27:59.462Z,21.43
2022-08-07T09:30:35.014Z,21.53
2022-08-07T09:33:16.558Z,21.64
2022-08-07T09:36:11.743Z,21.73
2022-08-07T09:38:57.750Z,21.76
2022-08-07T09:42:03.023Z,21.80
2022-08-07T09:47:26.311Z,21.71
2022-08-07T09:48:08.810Z,21.73
2022-08-07T09:50:55.864Z,21.82
2022-08-07T09:53:26.039Z,21.93
2022-08-07T09:56:46.991Z,21.96
2022-08-07T09:59:44.670Z,21.94
2022-08-07T10:02:24.563Z,22.08
2022-08-07T10:05:29.721Z,22.23
2022-08-07T10:08:35.197Z,22.40
2022-08-07T10:12:00.135Z,22.61
2022-08-07T10:14:30.483Z,22.79
2022-08-07T10:17:22.646Z,22.87
2022-08-07T10:20:31.679Z,23.12
2022-08-07T10:23:17.073Z,23.43
2022-08-07T10:26:33.344Z,23.42
2022-08-07T10:29:34.950Z,23.28
2022-08-07T10:32:36.812Z,23.53
2022-08-07T10:35:55.699Z,23.93
2022-08-07T10:38:35.955Z,24.37
2022-08-07T10:41:46.605Z,25.21
2022-08-07T10:44:33.814Z,26.23
2022-08-07T10:47:18.767Z,27.21
2022-08-07T10:50:10.762Z,28.85
2022-08-07T10:52:58.834Z,30.00
2022-08-07T10:56:02.154Z,31.64
2022-08-07T10:58:59.433Z,34.07
2022-08-07T11:01:51.007Z,35.17
2022-08-07T11:05:00.080Z,36.77
2022-08-07T11:08:02.682Z,37.04
2022-08-07T11:10:52.294Z,36.71
2022-08-07T11:14:42.016Z,38.01
2022-08-07T11:17:07.389Z,39.08
2022-08-07T11:20:03.648Z,39.07
2022-08-07T11:22:49.006Z,39.75
2022-08-07T11:25:25.663Z,40.29
2022-08-07T11:28:04.287Z,40.88
2022-08-07T11:30:42.594Z,41.98
2022-08-07T11:33:59.393Z,43.43
2022-08-07T11:36:16.612Z,42.54
2022-08-07T11:39:19.721Z,38.94
2022-08-07T11:42:03.327Z,36.06
2022-08-07T11:44:51.962Z,34.66
2022-08-07T11:47:56.311Z,36.20
2022-08-07T11:50:44.238Z,34.54
2022-08-07T11:54:11.476Z,32.49
2022-08-07T11:56:59.232Z,31.01
2022-08-07T12:00:10.084Z,29.46
2022-08-07T12:02:55.583Z,29.65
2022-08-07T12:06:01.300Z,29.80
2022-08-07T12:08:52.627Z,28.86
2022-08-07T12:11:32.427Z,28.11
2022-08-07T12:14:08.509Z,27.49
2022-08-07T12:16:42.434Z,27.13
2022-08-07T12:20:03.311Z,28.47
2022-08-07T12:22:55.883Z,33.63
2022-08-07T12:26:23.344Z,36.61
2022-08-07T12:29:15.767Z,39.05
2022-08-07T12:32:03.813Z,37.22
2022-08-07T12:34:34.479Z,35.45
2022-08-07T12:37:08.768Z,35.04
2022-08-07T12:39:50.949Z,37.39
2022-08-07T12:42:27.189Z,38.12
2022-08-07T12:44:57.782Z,38.49
2022-08-07T12:48:13.222Z,37.64
2022-08-07T12:51:18.819Z,36.97
2022-08-07T12:54:02.714Z,36.18
2022-08-07T12:56:51.474Z,34.75
2022-08-07T12:59:30.497Z,34.00
2022-08-07T13:02:33.158Z,33.31
2022-08-07T13:06:04.755Z,33.30
2022-08-07T13:08:43.671Z,32.87
2022-08-07T13:12:02.742Z,32.46
2022-08-07T13:14:58.953Z,31.24
2022-08-07T13:17:42.718Z,30.92
2022-08-07T13:20:46.516Z,30.76
2022-08-07T13:24:01.751Z,30.46
2022-08-07T13:26:46.430Z,29.98
2022-08-07T13:29:52.302Z,29.38
2022-08-07T13:32:32.101Z,28.93
2022-08-07T13:35:08.410Z,28.57
2022-08-07T13:37:59.188Z,28.22
2022-08-07T13:40:46.843Z,28.25
2022-08-07T13:43:17.218Z,28.41
2022-08-07T13:46:11.286Z,28.48
2022-08-07T13:48:51.884Z,28.50
2022-08-07T13:51:28.180Z,28.59
2022-08-07T13:54:22.634Z,28.66
2022-08-07T13:56:59.458Z,28.51
2022-08-07T13:59:33.166Z,28.38
2022-08-07T14:02:14.996Z,28.21
2022-08-07T14:04:54.499Z,28.19
2022-08-07T14:07:24.402Z,28.11
2022-08-07T14:10:17.420Z,27.76
2022-08-07T14:12:58.515Z,27.97
2022-08-07T14:15:28.319Z,28.19
2022-08-07T14:18:24.238Z,28.22
2022-08-07T14:21:08.170Z,28.17
2022-08-07T14:24:01.855Z,27.99
2022-08-07T14:26:39.191Z,27.93
2022-08-07T14:30:06.395Z,27.82
2022-08-07T14:32:10.159Z,27.69
2022-08-07T14:34:46.200Z,27.73
2022-08-07T14:37:16.836Z,27.63
2022-08-07T14:40:16.469Z,27.56
2022-08-07T14:42:35.605Z,27.55
2022-08-07T14:45:25.483Z,27.45
2022-08-07T14:51:06.078Z,27.17
2022-08-07T14:56:33.199Z,27.07
2022-08-07T15:01:58.679Z,27.20
2022-08-07T15:04:26.139Z,27.14
2022-08-07T15:06:56.975Z,27.11
2022-08-07T15:09:57.608Z,27.14
2022-08-07T15:12:26.173Z,27.09
2022-08-07T15:15:09.117Z,26.96
2022-08-07T15:18:02.700Z,26.83
2022-08-07T15:20:38.568Z,26.82
2022-08-07T15:25:15.128Z,26.78
2022-08-07T15:31:57.647Z,26.17
2022-08-07T15:34:33.644Z,26.13
2022-08-07T15:37:06.854Z,26.11
2022-08-07T15:39:56.619Z,26.01
2022-08-07T15:42:47.845Z,25.98
2022-08-07T15:45:20.818Z,25.91
2022-08-07T15:48:13.000Z,25.72
2022-08-07T15:51:08.091Z,25.62
2022-08-07T15:53:52.183Z,25.39
2022-08-07T15:56:24.661Z,25.30
2022-08-07T15:58:59.350Z,25.29
2022-08-07T16:01:38.443Z,25.34
2022-08-07T16:04:15.300Z,25.25
2022-08-07T16:06:59.236Z,25.12
2022-08-07T16:09:42.211Z,25.03
2022-08-07T16:12:39.084Z,24.99
2022-08-07T16:15:55.209Z,24.92
2022-08-07T16:18:43.471Z,24.88
2022-08-07T16:22:19.244Z,24.83
2022-08-07T16:25:23.063Z,24.81
2022-08-07T16:29:18.359Z,24.80
2022-08-07T16:31:57.205Z,24.82
2022-08-07T16:34:45.356Z,24.81
2022-08-07T16:38:04.939Z,24.81
2022-08-07T16:40:34.304Z,24.77
2022-08-07T16:43:19.117Z,24.36
2022-08-07T16:50:26.593Z,24.55
2022-08-07T16:53:55.637Z,24.54
2022-08-07T16:56:25.871Z,24.49
2022-08-07T16:59:10.661Z,24.41
2022-08-07T17:01:56.669Z,24.34
2022-08-07T17:04:32.516Z,24.33
2022-08-07T17:07:08.072Z,24.26
2022-08-07T17:10:08.153Z,24.26
2022-08-07T17:12:47.491Z,24.34
2022-08-07T17:15:15.689Z,24.50
2022-08-07T17:17:48.535Z,24.69
2022-08-07T17:20:41.265Z,24.84
2022-08-07T17:23:31.990Z,24.98
2022-08-07T17:26:24.147Z,25.05
2022-08-07T17:30:14.721Z,25.05
2022-08-07T17:32:31.155Z,25.05
2022-08-07T17:35:50.002Z,25.01
2022-08-07T17:38:33.414Z,24.99
2022-08-07T17:42:02.296Z,24.85
2022-08-07T17:44:33.873Z,24.75
2022-08-07T17:47:16.922Z,24.65
2022-08-07T17:49:59.155Z,24.52
2022-08-07T17:52:31.427Z,24.43
2022-08-07T17:55:09.244Z,24.29
2022-08-07T17:58:13.547Z,24.16
2022-08-07T18:00:59.097Z,24.09
2022-08-07T18:04:04.537Z,23.98
2022-08-07T18:06:43.565Z,23.91
2022-08-07T18:09:18.844Z,23.82
2022-08-07T18:12:28.591Z,23.75
2022-08-07T18:15:08.636Z,23.70
2022-08-07T18:18:46.422Z,23.62
2022-08-07T18:21:06.522Z,23.57
2022-08-07T18:23:58.316Z,23.50
2022-08-07T18:26:38.566Z,23.44
2022-08-07T18:30:04.208Z,23.38
2022-08-07T18:32:39.240Z,23.31
2022-08-07T18:35:21.733Z,23.27
2022-08-07T18:38:57.602Z,23.22
2022-08-07T18:41:16.744Z,23.18
2022-08-07T18:43:48.965Z,23.15
2022-08-07T18:47:08.568Z,23.07
2022-08-07T18:50:30.760Z,23.04
2022-08-07T18:52:53.271Z,23.00
2022-08-07T18:55:57.325Z,22.94
2022-08-07T18:59:01.626Z,22.88
2022-08-07T19:02:18.291Z,22.85
2022-08-07T19:04:56.228Z,22.77
2022-08-07T19:07:59.296Z,22.73
2022-08-07T19:10:49.429Z,22.69
2022-08-07T19:13:37.761Z,22.62
2022-08-07T19:17:01.473Z,22.57
2022-08-07T19:19:41.169Z,22.52
2022-08-07T19:22:18.433Z,22.46
2022-08-07T19:24:58.506Z,22.40
2022-08-07T19:28:58.533Z,22.33
2022-08-07T19:31:05.817Z,22.28
2022-08-07T19:33:15.606Z,22.23
2022-08-07T19:35:53.599Z,22.15
2022-08-07T19:38:21.541Z,22.10
2022-08-07T19:40:51.843Z,22.06
2022-08-07T19:43:49.060Z,22.01
2022-08-07T19:46:10.927Z,21.96
2022-08-07T19:48:42.133Z,21.90
2022-08-07T19:51:19.366Z,21.84
2022-08-07T19:54:35.609Z,21.80
2022-08-07T19:57:52.006Z,21.78
2022-08-07T19:59:39.917Z,21.72
2022-08-07T20:02:19.739Z,21.66
2022-08-07T20:04:57.017Z,21.62
2022-08-07T20:07:47.135Z,21.57
2022-08-07T20:10:36.615Z,21.49
2022-08-07T20:13:22.687Z,21.43
2022-08-07T20:15:52.220Z,21.39
2022-08-07T20:18:32.780Z,21.36
2022-08-07T20:21:02.164Z,21.31
2022-08-07T20:23:41.069Z,21.27
2022-08-07T20:26:10.842Z,21.22
2022-08-07T20:28:40.029Z,21.18
2022-08-07T20:31:21.892Z,21.14
2022-08-07T20:33:56.463Z,21.14
2022-08-07T20:36:26.553Z,21.12
2022-08-07T20:39:00.810Z,21.07
2022-08-07T20:41:41.045Z,21.05
2022-08-07T20:44:12.465Z,20.98
2022-08-07T20:46:44.278Z,20.96
2022-08-07T20:49:57.799Z,21.00
2022-08-07T20:52:09.360Z,21.15
2022-08-07T20:54:53.292Z,21.35
2022-08-07T20:57:24.877Z,21.62
2022-08-07T21:00:06.971Z,21.84
2022-08-07T21:03:00.613Z,21.87
2022-08-07T21:05:51.517Z,21.77
2022-08-07T21:08:39.227Z,21.63
2022-08-07T21:11:14.459Z,21.53
2022-08-07T21:14:16.057Z,21.38
2022-08-07T21:16:56.286Z,21.24
2022-08-07T21:19:51.390Z,21.15
2022-08-07T21:22:25.590Z,21.09
2022-08-07T21:25:12.140Z,21.04
2022-08-07T21:27:47.450Z,21.03
2022-08-07T21:30:17.783Z,20.99
2022-08-07T21:33:11.611Z,20.95
2022-08-07T21:36:06.034Z,20.93
2022-08-07T21:39:46.507Z,20.90
2022-08-07T21:42:37.459Z,20.87
2022-08-07T21:45:01.348Z,20.83
2022-08-07T21:48:29.092Z,20.78
2022-08-07T21:51:19.465Z,20.73
2022-08-07T21:53:54.008Z,20.71
2022-08-07T21:56:57.967Z,20.64
2022-08-07T22:00:04.603Z,20.61
2022-08-07T22:02:44.853Z,20.57
2022-08-07T22:05:45.352Z,20.53
2022-08-07T22:08:12.279Z,20.52
2022-08-07T22:10:42.414Z,20.47
2022-08-07T22:13:14.057Z,20.43
2022-08-07T22:16:42.597Z,20.38
2022-08-07T22:18:52.656Z,20.35
2022-08-07T22:21:26.093Z,20.34
2022-08-07T22:24:17.581Z,20.30
2022-08-07T22:26:56.559Z,20.26
2022-08-07T22:29:33.992Z,20.24
2022-08-07T22:32:20.724Z,20.22
2022-08-07T22:34:54.149Z,20.19
2022-08-07T22:38:04.571Z,20.16
2022-08-07T22:40:54.887Z,20.12
2022-08-07T22:43:39.152Z,20.07
2022-08-07T22:47:02.620Z,20.04
2022-08-07T22:49:51.797Z,20.00
2022-08-07T22:52:39.628Z,19.99
2022-08-07T22:55:34.162Z,19.94
2022-08-07T22:58:33.786Z,19.90
2022-08-07T23:01:49.877Z,19.87
2022-08-07T23:04:58.090Z,19.83
2022-08-07T23:08:24.364Z,19.81
2022-08-07T23:11:10.275Z,19.78
2022-08-07T23:14:10.878Z,19.77
2022-08-07T23:17:03.243Z,19.71
2022-08-07T23:20:14.746Z,19.67
2022-08-07T23:23:01.659Z,19.64
2022-08-07T23:25:37.516Z,19.64
2022-08-07T23:28:31.105Z,19.59
2022-08-07T23:32:48.642Z,19.55
2022-08-07T23:35:07.370Z,19.51
2022-08-07T23:38:10.881Z,19.49
2022-08-07T23:40:52.974Z,19.47
2022-08-07T23:43:57.341Z,19.42
2022-08-07T23:47:03.667Z,19.40
2022-08-07T23:49:50.530Z,19.41
2022-08-07T23:53:06.777Z,19.35
2022-08-07T23:55:52.271Z,19.32
2022-08-07T23:58:55.048Z,19.31
